Map

Track Data

SID SEASON NUMBER BASIN SUBBASIN NAME ISO_TIME NATURE LAT LON WMO_WIND WMO_PRES WMO_AGENCY TRACK_TYPE DIST2LAND LANDFALL IFLAG USA_AGENCY USA_ATCF_ID USA_LAT USA_LON USA_RECORD USA_STATUS USA_WIND USA_PRES USA_SSHS USA_R34_NE USA_R34_SE USA_R34_SW USA_R34_NW USA_R50_NE USA_R50_SE USA_R50_SW USA_R50_NW USA_R64_NE USA_R64_SE USA_R64_SW USA_R64_NW USA_POCI USA_ROCI USA_RMW USA_EYE TOKYO_LAT TOKYO_LON TOKYO_GRADE TOKYO_WIND TOKYO_PRES TOKYO_R50_DIR TOKYO_R50_LONG TOKYO_R50_SHORT TOKYO_R30_DIR TOKYO_R30_LONG TOKYO_R30_SHORT TOKYO_LAND CMA_LAT CMA_LON CMA_CAT CMA_WIND CMA_PRES HKO_LAT HKO_LON HKO_CAT HKO_WIND HKO_PRES NEWDELHI_LAT NEWDELHI_LON NEWDELHI_GRADE NEWDELHI_WIND NEWDELHI_PRES NEWDELHI_CI NEWDELHI_DP NEWDELHI_POCI REUNION_LAT REUNION_LON REUNION_TYPE REUNION_WIND REUNION_PRES REUNION_TNUM REUNION_CI REUNION_RMW REUNION_R34_NE REUNION_R34_SE REUNION_R34_SW REUNION_R34_NW REUNION_R50_NE REUNION_R50_SE REUNION_R50_SW REUNION_R50_NW REUNION_R64_NE REUNION_R64_SE REUNION_R64_SW REUNION_R64_NW BOM_LAT BOM_LON BOM_TYPE BOM_WIND BOM_PRES BOM_TNUM BOM_CI BOM_RMW BOM_R34_NE BOM_R34_SE BOM_R34_SW BOM_R34_NW BOM_R50_NE BOM_R50_SE BOM_R50_SW BOM_R50_NW BOM_R64_NE BOM_R64_SE BOM_R64_SW BOM_R64_NW BOM_ROCI BOM_POCI BOM_EYE BOM_POS_METHOD BOM_PRES_METHOD NADI_LAT NADI_LON NADI_CAT NADI_WIND NADI_PRES WELLINGTON_LAT WELLINGTON_LON WELLINGTON_WIND WELLINGTON_PRES DS824_LAT DS824_LON DS824_STAGE DS824_WIND DS824_PRES TD9636_LAT TD9636_LON TD9636_STAGE TD9636_WIND TD9636_PRES TD9635_LAT TD9635_LON TD9635_WIND TD9635_PRES TD9635_ROCI NEUMANN_LAT NEUMANN_LON NEUMANN_CLASS NEUMANN_WIND NEUMANN_PRES MLC_LAT MLC_LON MLC_CLASS MLC_WIND MLC_PRES USA_GUST BOM_GUST BOM_GUST_PER REUNION_GUST REUNION_GUST_PER USA_SEAHGT USA_SEARAD_NE USA_SEARAD_SE USA_SEARAD_SW USA_SEARAD_NW STORM_SPEED STORM_DIR
1961040S15117 1961 17 SI WA NOT_NAMED 1961-02-09 01:00:00 NR -15.0000 117.000 1004 bom main 612 612 ______O_______ -1 -15.0000 117.000 1004 14 262
1961040S15117 1961 17 SI WA NOT_NAMED 1961-02-09 03:00:00 NR -15.0634 116.524 main 615 615 ______P_______ -1 -15.0634 116.524 12 262
1961040S15117 1961 17 SI WA NOT_NAMED 1961-02-09 06:00:00 TS -15.1414 115.936 main 621 611 ______P_____O_ -1 -15.1552 115.814 -15.1000 116.300 TC 25 1002 12 263
1961040S15117 1961 17 SI WA NOT_NAMED 1961-02-09 09:00:00 TS -15.2115 115.291 main 622 622 ______P_____P_ -1 -15.2407 115.118 -15.1530 115.638 TC 27 1000 12 264
1961040S15117 1961 17 SI WA NOT_NAMED 1961-02-09 12:00:00 TS -15.2672 114.683 main 629 633 ______P_____O_ -1 -15.3177 114.445 -15.2000 115.000 TC 30 999 12 265
1961040S15117 1961 17 SI WA NOT_NAMED 1961-02-09 15:00:00 TS -15.3130 114.101 main 653 653 ______P_____P_ -1 -15.3838 113.802 -15.2422 114.400 TC 32 998 11 265
1961040S15117 1961 17 SI WA NOT_NAMED 1961-02-09 18:00:00 TS -15.3686 113.500 main 673 673 ______P_____O_ -1 -15.4371 113.200 -15.3000 113.800 TC 35 997 12 264
1961040S15117 1961 17 SI WA NOT_NAMED 1961-02-09 21:00:00 TS -15.4341 112.880 main 707 708 ______P_____P_ -1 -15.4754 112.646 -15.3927 113.113 TC 37 995 12 264
1961040S15117 1961 17 SI WA NOT_NAMED 1961-02-10 00:00:00 TS -15.4986 112.311 main 731 731 ______P__O__O_ -1 -15.4969 112.151 -15.5000 112.200 TC 40 994 -15.5000 112.500 TC 40 994 11 263
1961040S15117 1961 17 SI WA NOT_NAMED 1961-02-10 01:00:00 TS -15.5140 112.155 994 bom main 737 737 ______O__P__P_ -1 -15.5000 112.000 994 -15.5036 112.093 TC -15.5332 112.341 TC 40 994 8 264
1961040S15117 1961 17 SI WA NOT_NAMED 1961-02-10 03:00:00 TS -15.5399 111.896 main 749 741 ______P__P__P_ -1 -15.5006 111.721 -15.5124 111.879 TC -15.5998 112.082 TC 40 994 7 264
1961040S15117 1961 17 SI WA NOT_NAMED 1961-02-10 06:00:00 TS -15.5775 111.575 main 748 748 ______P__P__O_ -1 -15.4974 111.358 -15.5351 111.568 TC -15.7000 111.800 TC 40 994 6 261
1961040S15117 1961 17 SI WA NOT_NAMED 1961-02-10 09:00:00 TS -15.6257 111.303 main 759 753 ______P__P__P_ -1 -15.5056 111.056 -15.5790 111.274 TC -15.7924 111.577 TC 40 994 5 256
1961040S15117 1961 17 SI WA NOT_NAMED 1961-02-10 12:00:00 TS -15.6996 111.073 main 757 751 ______P__P__O_ -1 -15.5437 110.812 -15.6551 111.008 TC -15.9000 111.400 TC 40 994 5 245
1961040S15117 1961 17 SI WA NOT_NAMED 1961-02-10 15:00:00 TS -15.8180 110.869 main 756 745 ______P__P__P_ -1 -15.6299 110.620 -15.7742 110.779 TC -16.0500 111.208 TC 40 994 5 233
1961040S15117 1961 17 SI WA NOT_NAMED 1961-02-10 18:00:00 TS -15.9767 110.690 main 745 736 ______P__P__O_ -1 -15.7826 110.476 -15.9474 110.595 TC -16.2000 111.000 TC 40 994 5 225
1961040S15117 1961 17 SI WA NOT_NAMED 1961-02-10 21:00:00 TS -16.1536 110.523 main 736 722 ______P__P__P_ -1 -16.0200 110.375 -16.1857 110.465 TC -16.2551 110.727 TC 40 994 5 212
1961040S15117 1961 17 SI WA NOT_NAMED 1961-02-11 00:00:00 TS -16.4202 110.404 main 722 712 ______P__O__O_ -1 -16.3605 110.313 -16.5000 110.400 TC 40 994 -16.4000 110.500 TC 40 994 6 199
1961040S15117 1961 17 SI WA NOT_NAMED 1961-02-11 01:00:00 TS -16.5427 110.383 994 bom main 712 684 ______O__P__P_ -1 -16.5000 110.300 994 -16.6234 110.394 TC -16.5048 110.455 TC 40 993 8 187
1961040S15117 1961 17 SI WA NOT_NAMED 1961-02-11 03:00:00 TS -16.8360 110.351 main 684 628 ______P__P__P_ -1 -16.8286 110.244 993 -16.8969 110.405 TC -16.7825 110.405 TC 42 993 10 0
1961040S15117 1961 17 SI WA NOT_NAMED 1961-02-11 06:00:00 TS -17.3527 110.362 main 628 584 ______P__P__O_ -1 -17.3926 110.210 991 -17.3654 110.476 TC -17.3000 110.400 TC 45 992 11 177
1961040S15117 1961 17 SI WA NOT_NAMED 1961-02-11 09:00:00 TS -17.9074 110.419 main 584 567 ______P__P__P_ -1 -17.9978 110.260 990 -17.8896 110.607 TC -17.8349 110.390 TC 47 990 11 173
1961040S15117 1961 17 SI WA NOT_NAMED 1961-02-11 10:00:00 TS -18.0988 110.457 990 bom main 560 520 ______O__P__P_ -1 -18.2000 110.300 990 -18.0741 110.662 TC -18.0224 110.409 TC 48 990 12 166
1961040S15117 1961 17 SI WA NOT_NAMED 1961-02-11 12:00:00 TS -18.4746 110.569 main 520 465 ______P__P__O_ -1 -18.5697 110.417 -18.4541 110.789 TC -18.4000 110.500 TC 50 989 12 159
1961040S15117 1961 17 SI WA NOT_NAMED 1961-02-11 15:00:00 TS -19.0379 110.835 main 465 388 ______P__P__P_ -1 -19.1205 110.684 -19.0430 111.017 TC -18.9501 110.805 TC 50 988 13 153
1961040S15117 1961 17 SI WA NOT_NAMED 1961-02-11 18:00:00 TS -19.6043 111.172 main 388 321 ______P__P__O_ -1 -19.6723 111.033 -19.6407 111.283 TC -19.5000 111.200 TC 50 987 13 150
1961040S15117 1961 17 SI WA NOT_NAMED 1961-02-11 21:00:00 TS -20.1685 111.522 main 321 255 ______P__P__P_ -1 -20.2315 111.436 -20.2316 111.580 TC -20.0424 111.550 TC 52 986 13 149
1961040S15117 1961 17 SI WA NOT_NAMED 1961-02-12 00:00:00 TS -20.7349 111.886 main 255 235 ______P__O__O_ -1 -20.8046 111.859 -20.8000 111.900 TC 55 985 -20.6000 111.900 TC 55 985 13 149
1961040S15117 1961 17 SI WA NOT_NAMED 1961-02-12 01:00:00 TS -20.9245 112.008 985 bom main 235 187 ______O__P__P_ -1 -21.0000 112.000 985 4 -20.9819 112.011 TC -20.7916 112.014 TC 55 985 14 150
1961040S15117 1961 17 SI WA NOT_NAMED 1961-02-12 03:00:00 TS -21.3286 112.259 main 187 129 ______P__P__P_ -1 -21.4670 112.298 -21.3339 112.237 TC -21.1849 112.243 TC 55 985 14 150
1961040S15117 1961 17 SI WA NOT_NAMED 1961-02-12 06:00:00 TS -21.9393 112.649 main 129 62 ______P__P__O_ -1 -22.1834 112.758 -21.8346 112.588 TC -21.8000 112.600 TC 55 986 14 149
1961040S15117 1961 17 SI WA NOT_NAMED 1961-02-12 09:00:00 TS -22.5455 113.049 main 62 40 ______P__P__P_ -1 -22.8573 113.189 -22.3067 112.952 TC -22.4725 113.007 TC 52 987 14 148
1961040S15117 1961 17 SI WA NOT_NAMED 1961-02-12 12:00:00 TS -23.0917 113.422 main 40 20 ______P__P__O_ -1 -23.4202 113.539 -22.7549 113.327 TC -23.1000 113.400 TC 50 988 12 148
1961040S15117 1961 17 SI WA NOT_NAMED 1961-02-12 14:00:00 TS -23.4004 113.629 990 bom main 20 10 ______O__P__P_ -1 -23.7000 113.700 990 -23.0427 113.581 TC -23.4585 113.605 TC 46 988 10 148
1961040S15117 1961 17 SI WA NOT_NAMED 1961-02-12 15:00:00 TS -23.5360 113.720 main 10 0 ______P__P__P_ -1 -23.8070 113.748 990 -23.1838 113.710 TC -23.6172 113.700 TC 45 989 9 147
1961040S15117 1961 17 SI WA NOT_NAMED 1961-02-12 16:00:00 TS -23.6614 113.812 990 bom main 0 0 ______O__P__P_ -1 -23.9000 113.800 990 -23.3233 113.840 TC -23.7610 113.795 TC 43 989 9 144
1961040S15117 1961 17 SI WA NOT_NAMED 1961-02-12 18:00:00 TS -23.9048 114.017 main 0 0 ______P__P__O_ -1 -24.0635 113.965 990 -23.5979 114.102 TC -24.0000 114.000 TC 40 990 9 134
1961040S15117 1961 17 SI WA NOT_NAMED 1961-02-12 21:00:00 TS -24.1844 114.399 main 0 0 ______P__P__P_ -1 -24.2689 114.349 992 -24.0018 114.499 TC -24.2404 114.375 TC 37 991 9 125
1961040S15117 1961 17 SI WA NOT_NAMED 1961-02-13 00:00:00 TS -24.4222 114.840 main 0 0 ______P__O__O_ -1 -24.4445 114.830 993 -24.4000 114.900 TC 40 994 -24.4000 114.800 TC 35 993 9 120
1961040S15117 1961 17 SI WA NOT_NAMED 1961-02-13 01:00:00 NR -24.5000 115.000 994 bom main 0 ______O_______ -1 -24.5000 115.000 994 TC TC 10 118

About IBTrACS Database

This database is a web-friendly format of International Best Track Archive for Climate Stewardship (IBTrACS), a global best track data archive curated by NOAA dating back to 1842.

Updated: 2021-11-26